Time;durP1;ratioP1;P1;durP2;ratioP2;P2;SDS_P1;SDS_P2;PMS_P1;PMS_P2;Temp;Humidity;BMP_temperature;BMP_pressure;BME280_temperature;BME280_humidity;BME280_pressure;Samples;Min_cycle;Max_cycle;Signal;HPM_P1;HPM_P2
2024/01/20 00:01:33;;;;;;;9.53;8.63;;;;;;;8.81;99.46;98948.59;5113418;28;20642;-77
2024/01/20 00:04:00;;;;;;;10.10;7.70;;;;;;;8.89;98.20;98956.38;5113743;28;20190;-77
2024/01/20 00:06:26;;;;;;;10.43;8.00;;;;;;;8.95;98.47;98965.34;5113371;28;20732;-77
2024/01/20 00:08:55;;;;;;;9.13;7.63;;;;;;;8.96;96.81;98966.97;5113086;28;20214;-76
2024/01/20 00:11:22;;;;;;;11.90;8.43;;;;;;;8.95;96.26;98952.09;5113205;28;20252;-75
2024/01/20 00:13:49;;;;;;;10.73;7.03;;;;;;;9.03;94.92;98951.94;5113357;28;20221;-75
2024/01/20 00:16:16;;;;;;;8.33;7.53;;;;;;;9.04;95.04;98950.91;5113127;28;20187;-74
2024/01/20 00:18:42;;;;;;;15.73;9.70;;;;;;;9.17;94.25;98964.19;5112909;28;20218;-74
2024/01/20 00:21:09;;;;;;;15.50;8.90;;;;;;;9.26;93.33;98963.81;5113246;28;20251;-75
2024/01/20 00:23:37;;;;;;;11.87;9.10;;;;;;;9.28;92.75;98967.06;5113089;28;20202;-74
2024/01/20 00:26:05;;;;;;;11.20;8.63;;;;;;;9.24;92.77;98967.69;5112865;28;20199;-75
2024/01/20 00:28:32;;;;;;;13.20;8.07;;;;;;;9.28;92.30;98967.06;5112799;28;20554;-75
2024/01/20 00:30:58;;;;;;;10.67;8.03;;;;;;;9.19;91.82;98951.56;5112823;28;20661;-76
2024/01/20 00:33:25;;;;;;;7.33;6.80;;;;;;;9.23;91.41;98947.50;5112837;28;20271;-76
2024/01/20 00:35:52;;;;;;;7.80;6.47;;;;;;;9.19;91.14;98925.88;5112392;28;20199;-77
2024/01/20 00:38:19;;;;;;;8.67;6.97;;;;;;;9.11;91.39;98943.81;5112690;28;20260;-76
2024/01/20 00:40:46;;;;;;;8.67;7.13;;;;;;;9.12;91.06;98946.25;5112964;28;20222;-75
2024/01/20 00:43:15;;;;;;;7.47;6.77;;;;;;;9.09;90.68;98977.63;5112557;28;20198;-77
2024/01/20 00:45:41;;;;;;;7.77;7.07;;;;;;;9.10;90.16;98969.47;5112840;28;20190;-77
2024/01/20 00:48:08;;;;;;;9.60;7.23;;;;;;;9.03;90.63;98970.47;5112430;28;20624;-77
2024/01/20 00:50:35;;;;;;;6.60;6.03;;;;;;;8.94;90.49;98975.13;5112667;28;20194;-76
2024/01/20 00:53:02;;;;;;;8.27;7.47;;;;;;;8.94;90.26;98979.63;5112674;28;20197;-76
2024/01/20 00:55:28;;;;;;;11.37;8.13;;;;;;;8.99;89.97;99003.66;5112642;28;20243;-77
2024/01/20 00:57:55;;;;;;;9.13;7.90;;;;;;;8.85;90.18;99007.25;5112788;28;20186;-76
2024/01/20 01:00:23;;;;;;;16.27;7.63;;;;;;;8.86;90.62;99014.22;5112377;28;20714;-76
2024/01/20 01:02:50;;;;;;;7.90;6.77;;;;;;;8.77;91.09;99018.00;5112316;28;20198;-75
2024/01/20 01:05:17;;;;;;;11.10;7.03;;;;;;;8.67;91.09;99020.22;5112098;28;20198;-76
2024/01/20 01:07:43;;;;;;;7.67;7.17;;;;;;;8.55;91.63;99037.66;5112230;28;20239;-75
2024/01/20 01:10:10;;;;;;;11.03;8.80;;;;;;;8.60;92.10;99040.53;5112050;28;20271;-75
2024/01/20 01:12:37;;;;;;;7.93;7.00;;;;;;;8.63;91.27;99042.78;5112178;28;20198;-75
2024/01/20 01:15:04;;;;;;;10.73;7.03;;;;;;;8.66;90.84;99066.25;5111691;28;20593;-76
2024/01/20 01:17:33;;;;;;;7.43;6.73;;;;;;;8.68;90.49;99067.69;5112343;28;20195;-76
2024/01/20 01:19:59;;;;;;;8.30;7.50;;;;;;;8.49;90.35;99059.63;5112402;28;20282;-75
2024/01/20 01:22:26;;;;;;;11.43;8.17;;;;;;;8.54;90.89;99087.09;5112342;28;20194;-76
2024/01/20 01:24:53;;;;;;;11.40;7.57;;;;;;;8.61;90.22;99089.81;5111837;28;20190;-77
2024/01/20 01:27:19;;;;;;;11.33;6.23;;;;;;;8.57;89.90;99099.13;5112399;28;20251;-77
2024/01/20 01:29:46;;;;;;;9.03;5.27;;;;;;;8.57;88.91;99091.19;5111815;28;20240;-76
2024/01/20 01:32:13;;;;;;;7.60;5.40;;;;;;;8.64;88.82;99089.41;5112336;28;20194;-76
2024/01/20 01:34:41;;;;;;;8.00;5.57;;;;;;;8.66;87.71;99082.13;5112007;28;20723;-77
2024/01/20 01:37:08;;;;;;;6.70;5.03;;;;;;;8.68;87.92;99078.25;5111955;28;20213;-76
2024/01/20 01:39:34;;;;;;;6.13;5.60;;;;;;;8.69;88.31;99081.72;5111827;28;20625;-77
2024/01/20 01:42:01;;;;;;;7.67;5.90;;;;;;;8.70;87.40;99096.59;5112037;28;20286;-76
2024/01/20 01:44:28;;;;;;;5.10;4.73;;;;;;;8.68;86.82;99095.97;5112266;28;20202;-76
2024/01/20 01:46:55;;;;;;;5.73;5.33;;;;;;;8.69;87.07;99098.44;5112161;28;20243;-77
2024/01/20 01:49:22;;;;;;;6.20;5.53;;;;;;;8.67;86.40;99111.06;5111804;28;20665;-76
2024/01/20 01:51:51;;;;;;;5.90;5.40;;;;;;;8.67;85.86;99120.81;5111727;28;20199;-77
2024/01/20 01:54:19;;;;;;;13.20;7.10;;;;;;;8.70;86.07;99131.03;5112048;28;20277;-76
2024/01/20 01:56:48;;;;;;;8.10;5.30;;;;;;;8.67;86.14;99136.69;5111594;28;20255;-76
2024/01/20 01:59:15;;;;;;;5.50;5.00;;;;;;;8.67;86.09;99134.06;5111769;28;20226;-75
2024/01/20 02:01:42;;;;;;;4.37;3.97;;;;;;;8.67;84.69;99139.34;5111465;28;20194;-74
2024/01/20 02:04:09;;;;;;;5.50;4.60;;;;;;;8.67;84.32;99136.69;5111979;28;20268;-75
2024/01/20 02:06:35;;;;;;;5.07;4.67;;;;;;;8.72;83.31;99148.34;5111358;28;20618;-76
2024/01/20 02:09:04;;;;;;;6.07;5.57;;;;;;;8.63;83.21;99151.31;5111967;28;20195;-78
2024/01/20 02:11:31;;;;;;;5.00;4.47;;;;;;;8.54;83.68;99160.44;5111911;28;20218;-76
2024/01/20 02:13:59;;;;;;;5.63;4.93;;;;;;;8.53;83.41;99156.94;5111898;28;20194;-76
2024/01/20 02:16:25;;;;;;;5.33;4.93;;;;;;;8.49;83.54;99160.19;5115352;28;20198;-77
2024/01/20 02:18:52;;;;;;;5.47;5.17;;;;;;;8.44;84.26;99175.78;5115330;28;20194;-77
2024/01/20 02:21:19;;;;;;;5.20;4.77;;;;;;;8.50;83.33;99180.34;5115141;28;20665;-76
2024/01/20 02:23:49;;;;;;;6.47;4.90;;;;;;;8.44;83.54;99179.25;5114921;28;20198;-76
2024/01/20 02:26:15;;;;;;;5.90;5.27;;;;;;;8.46;82.89;99179.09;5115372;28;20350;-77
2024/01/20 02:28:42;;;;;;;4.67;4.27;;;;;;;8.44;81.90;99178.44;5115670;28;20261;-76
2024/01/20 02:31:09;;;;;;;4.37;4.07;;;;;;;8.38;82.93;99181.84;5115036;28;20746;-74
2024/01/20 02:33:35;;;;;;;3.90;3.60;;;;;;;8.28;81.89;99178.69;5115323;28;20191;-75
2024/01/20 02:36:02;;;;;;;4.40;4.00;;;;;;;8.22;81.85;99176.81;5115325;28;20190;-76
2024/01/20 02:38:29;;;;;;;4.30;4.00;;;;;;;8.20;82.17;99192.84;5114955;28;20253;-75
2024/01/20 02:40:57;;;;;;;4.13;3.83;;;;;;;8.12;81.62;99181.53;5115029;28;20300;-76
2024/01/20 02:43:23;;;;;;;3.50;3.23;;;;;;;8.10;81.48;99194.97;5114884;28;20666;-75
2024/01/20 02:45:50;;;;;;;4.77;4.23;;;;;;;8.07;82.64;99194.53;5114814;28;20194;-74
2024/01/20 02:48:17;;;;;;;4.00;3.80;;;;;;;8.08;81.75;99204.13;5115057;28;20198;-74
2024/01/20 02:50:44;;;;;;;4.83;3.70;;;;;;;8.07;81.93;99205.09;5114708;28;20605;-74
2024/01/20 02:53:10;;;;;;;6.43;3.83;;;;;;;7.99;81.31;99211.34;5114975;28;20193;-75
2024/01/20 02:55:37;;;;;;;3.90;3.60;;;;;;;7.99;80.64;99215.78;5114687;28;20628;-74
2024/01/20 02:58:05;;;;;;;4.83;3.57;;;;;;;7.95;81.28;99233.03;5114791;28;20255;-74
2024/01/20 03:00:32;;;;;;;4.60;3.63;;;;;;;7.91;81.11;99229.13;5114476;28;20541;-74
2024/01/20 03:02:59;;;;;;;4.00;3.60;;;;;;;7.83;80.93;99221.28;5114788;28;20250;-74
2024/01/20 03:05:25;;;;;;;3.60;3.23;;;;;;;7.76;81.65;99220.41;5114430;28;20191;-72
2024/01/20 03:07:52;;;;;;;3.73;3.43;;;;;;;7.76;81.85;99220.41;5114685;28;20197;-72
2024/01/20 03:10:19;;;;;;;4.00;3.80;;;;;;;7.66;82.04;99219.88;5114257;28;20200;-72
2024/01/20 03:12:45;;;;;;;4.17;3.77;;;;;;;7.73;81.14;99231.34;5114221;28;20202;-73
2024/01/20 03:15:14;;;;;;;3.63;3.43;;;;;;;7.69;81.74;99230.06;5114186;28;20199;-72
2024/01/20 03:17:41;;;;;;;3.70;3.50;;;;;;;7.60;82.14;99231.19;5114646;28;20201;-74
2024/01/20 03:20:09;;;;;;;4.23;3.50;;;;;;;7.58;81.08;99241.09;5114455;28;20225;-74
2024/01/20 03:22:36;;;;;;;3.50;3.30;;;;;;;7.49;80.52;99236.91;5114395;28;20200;-74
2024/01/20 03:25:03;;;;;;;3.80;3.60;;;;;;;7.48;81.59;99251.94;5113998;28;20238;-74
2024/01/20 03:27:29;;;;;;;3.47;3.27;;;;;;;7.54;80.81;99255.69;5114211;28;20243;-73
2024/01/20 03:29:56;;;;;;;3.83;3.63;;;;;;;7.43;80.64;99245.59;5114050;28;20247;-74
2024/01/20 03:32:24;;;;;;;4.23;3.73;;;;;;;7.41;81.05;99247.59;5114170;28;20245;-73
2024/01/20 03:34:51;;;;;;;4.33;4.03;;;;;;;7.39;81.54;99252.25;5113943;28;20665;-73
2024/01/20 03:37:18;;;;;;;3.97;3.43;;;;;;;7.31;81.49;99244.41;5114114;28;20191;-77
2024/01/20 03:39:44;;;;;;;3.67;3.30;;;;;;;7.40;81.39;99235.38;5113693;28;20237;-78
2024/01/20 03:42:11;;;;;;;5.37;3.63;;;;;;;7.40;81.15;99245.94;5114186;28;20251;-80
2024/01/20 03:44:38;;;;;;;4.40;4.10;;;;;;;7.24;81.56;99236.38;5114410;28;20186;-81
2024/01/20 03:47:05;;;;;;;4.37;3.43;;;;;;;7.39;81.14;99246.97;5113974;28;20259;-81
2024/01/20 03:49:33;;;;;;;4.57;4.10;;;;;;;7.38;81.67;99254.06;5114048;28;20194;-80
2024/01/20 03:51:59;;;;;;;5.10;4.70;;;;;;;7.36;81.97;99265.81;5113831;28;20641;-79
2024/01/20 03:54:26;;;;;;;4.57;4.17;;;;;;;7.38;81.20;99263.78;5113720;28;20194;-79
2024/01/20 03:56:53;;;;;;;4.23;3.83;;;;;;;7.40;82.73;99280.28;5114014;28;20194;-78
2024/01/20 03:59:19;;;;;;;4.73;4.40;;;;;;;7.36;81.78;99293.06;5113484;28;20726;-78
2024/01/20 04:01:46;;;;;;;4.50;3.40;;;;;;;7.41;82.06;99295.13;5114080;28;20186;-80
2024/01/20 04:04:13;;;;;;;4.17;3.87;;;;;;;7.45;81.62;99301.69;5113458;28;20190;-78
2024/01/20 04:06:41;;;;;;;3.97;3.37;;;;;;;7.39;80.97;99300.59;5112475;28;20665;-76
2024/01/20 04:09:08;;;;;;;5.03;4.23;;;;;;;7.38;82.15;99306.06;5113754;28;20201;-76
2024/01/20 04:11:34;;;;;;;5.03;3.80;;;;;;;7.38;82.56;99306.06;5113353;28;20251;-76
2024/01/20 04:14:01;;;;;;;3.97;3.77;;;;;;;7.25;81.97;99306.69;5113341;28;20201;-76
2024/01/20 04:16:28;;;;;;;5.13;3.80;;;;;;;7.32;81.76;99306.78;5113390;28;20194;-75
2024/01/20 04:18:54;;;;;;;5.17;3.40;;;;;;;7.26;81.59;99312.81;5113174;28;20254;-76
2024/01/20 04:21:21;;;;;;;2.90;2.70;;;;;;;7.32;81.46;99312.06;5112310;28;20762;-74
2024/01/20 04:23:50;;;;;;;3.57;3.20;;;;;;;7.22;79.99;99311.53;5112903;28;20194;-74
2024/01/20 04:26:17;;;;;;;3.40;3.20;;;;;;;7.30;80.96;99345.75;5112469;28;20665;-75
2024/01/20 04:28:44;;;;;;;3.90;3.63;;;;;;;7.27;79.86;99354.06;5112751;28;20187;-76
2024/01/20 04:31:11;;;;;;;4.20;3.80;;;;;;;7.21;80.02;99346.84;5112478;28;20646;-77
2024/01/20 04:33:39;;;;;;;17.20;9.50;;;;;;;7.27;80.37;99367.28;5112405;28;20236;-75
2024/01/20 04:36:06;;;;;;;5.33;3.30;;;;;;;7.11;79.68;99344.44;5109982;28;20217;-75
2024/01/20 04:38:33;;;;;;;5.63;3.47;;;;;;;7.20;80.26;99383.00;5111656;28;20199;-76
2024/01/20 04:41:01;;;;;;;3.60;3.40;;;;;;;7.14;79.83;99380.25;5112486;28;20230;-77
2024/01/20 04:43:28;;;;;;;4.23;3.47;;;;;;;7.20;79.92;99384.81;5112367;28;20239;-75
2024/01/20 04:45:55;;;;;;;3.87;3.57;;;;;;;7.14;79.78;99396.09;5112439;28;20580;-74
2024/01/20 04:48:22;;;;;;;3.50;3.30;;;;;;;7.04;80.08;99403.44;5112109;28;20258;-75
2024/01/20 04:50:48;;;;;;;4.13;3.83;;;;;;;7.08;80.23;99410.00;5112185;28;20258;-75
2024/01/20 04:53:15;;;;;;;3.73;3.07;;;;;;;6.92;80.80;99416.22;5111773;28;20200;-75
2024/01/20 04:55:42;;;;;;;2.80;2.70;;;;;;;6.85;79.31;99415.25;5112119;28;20185;-75
2024/01/20 04:58:10;;;;;;;3.27;2.97;;;;;;;6.87;79.77;99428.28;5111799;28;20245;-75
2024/01/20 05:00:37;;;;;;;3.00;2.90;;;;;;;6.80;79.92;99440.53;5111785;28;20276;-76
2024/01/20 05:03:04;;;;;;;2.90;2.80;;;;;;;6.66;79.72;99442.06;5111913;28;20186;-74
2024/01/20 05:05:30;;;;;;;3.57;3.37;;;;;;;6.68;80.06;99450.66;5111998;28;20238;-76
2024/01/20 05:07:57;;;;;;;3.50;3.20;;;;;;;6.68;80.31;99455.09;5112127;28;20191;-76
2024/01/20 05:10:24;;;;;;;3.07;2.87;;;;;;;6.63;81.03;99457.44;5111516;28;20244;-75
2024/01/20 05:12:51;;;;;;;3.27;3.10;;;;;;;6.65;80.88;99450.19;5111834;28;20189;-74
2024/01/20 05:15:19;;;;;;;3.47;3.17;;;;;;;6.60;80.86;99457.78;5111624;28;20195;-75
2024/01/20 05:17:46;;;;;;;3.23;2.93;;;;;;;6.56;79.62;99467.88;5111963;28;20191;-74
2024/01/20 05:20:14;;;;;;;3.00;2.50;;;;;;;6.43;79.36;99472.88;5111564;28;20697;-72
2024/01/20 05:22:41;;;;;;;3.03;2.60;;;;;;;6.37;78.99;99472.72;5112014;28;20190;-75
2024/01/20 05:25:08;;;;;;;3.10;2.90;;;;;;;6.32;79.26;99470.59;5112444;28;20191;-73
2024/01/20 05:27:35;;;;;;;5.07;2.27;;;;;;;6.37;80.08;99475.38;5112244;28;20188;-74
2024/01/20 05:30:02;;;;;;;3.37;3.07;;;;;;;6.45;79.49;99486.69;5112393;28;20203;-74
2024/01/20 05:32:30;;;;;;;2.60;2.50;;;;;;;6.39;79.87;99481.28;5111757;28;20191;-76
2024/01/20 05:34:56;;;;;;;2.43;2.33;;;;;;;6.39;79.37;99481.28;5111840;28;20194;-74
2024/01/20 05:37:23;;;;;;;2.70;2.60;;;;;;;6.36;79.44;99486.91;5111123;28;20546;-75
2024/01/20 05:39:51;;;;;;;3.03;2.83;;;;;;;6.38;79.55;99485.75;5111306;28;20218;-75
2024/01/20 05:42:17;;;;;;;2.50;2.40;;;;;;;6.33;79.56;99493.31;5112077;28;20625;-71
2024/01/20 05:44:44;;;;;;;2.80;2.47;;;;;;;6.32;79.99;99498.78;5111823;28;20255;-71
2024/01/20 05:47:11;;;;;;;3.10;2.60;;;;;;;6.29;80.15;99504.41;5111576;28;20190;-72
2024/01/20 05:49:39;;;;;;;2.50;2.40;;;;;;;6.24;79.93;99504.91;5113264;28;20194;-71
2024/01/20 05:52:06;;;;;;;2.80;2.60;;;;;;;6.23;79.22;99512.97;5116376;28;20225;-72
2024/01/20 05:54:33;;;;;;;2.67;2.27;;;;;;;6.19;79.94;99520.41;5115593;28;20224;-72
2024/01/20 05:57:00;;;;;;;3.10;2.80;;;;;;;6.26;79.42;99525.81;5116058;28;20202;-71
2024/01/20 05:59:26;;;;;;;3.40;3.20;;;;;;;6.23;79.61;99512.97;5115879;28;20247;-72
2024/01/20 06:01:53;;;;;;;2.30;2.20;;;;;;;6.22;79.10;99535.91;5115507;28;20771;-71
2024/01/20 06:04:20;;;;;;;2.33;2.23;;;;;;;6.22;78.94;99533.25;5115846;28;20191;-69
2024/01/20 06:06:49;;;;;;;3.27;2.57;;;;;;;6.15;79.26;99539.34;5115819;28;20251;-70
2024/01/20 06:09:16;;;;;;;2.80;2.60;;;;;;;6.23;79.23;99544.63;5115383;28;20204;-72
2024/01/20 06:11:43;;;;;;;3.00;2.70;;;;;;;6.18;78.54;99550.41;5115457;28;20611;-72
2024/01/20 06:14:10;;;;;;;2.50;2.40;;;;;;;6.17;77.82;99561.97;5115701;28;20192;-73
2024/01/20 06:16:38;;;;;;;4.30;3.53;;;;;;;6.22;78.10;99564.91;5115647;28;20206;-73
2024/01/20 06:19:05;;;;;;;2.70;2.50;;;;;;;6.18;77.16;99575.94;5115342;28;20198;-73
2024/01/20 06:21:32;;;;;;;4.60;2.10;;;;;;;6.15;78.22;99574.47;5113386;28;20284;-69
2024/01/20 06:24:02;;;;;;;3.20;2.80;;;;;;;6.14;77.89;99590.44;5112967;28;20247;-70
2024/01/20 06:26:29;;;;;;;3.10;2.90;;;;;;;6.16;76.72;99601.66;5094914;28;20189;-70
2024/01/20 06:28:56;;;;;;;6.73;2.37;;;;;;;5.99;76.94;99597.38;5112905;28;20190;-71
2024/01/20 06:31:23;;;;;;;2.73;2.53;;;;;;;6.01;76.79;99608.59;5114075;28;20274;-71
2024/01/20 06:33:51;;;;;;;2.37;2.20;;;;;;;5.97;77.05;99612.53;5113920;28;20719;-71
2024/01/20 06:36:18;;;;;;;2.50;2.40;;;;;;;5.99;77.56;99607.91;5114234;28;20193;-70
2024/01/20 06:38:44;;;;;;;2.50;2.40;;;;;;;5.88;77.47;99613.53;5112869;28;20186;-71
2024/01/20 06:41:12;;;;;;;3.70;2.10;;;;;;;5.93;77.58;99630.50;5112768;28;20295;-72
2024/01/20 06:43:39;;;;;;;2.80;2.70;;;;;;;5.84;79.50;99622.75;5113489;28;20188;-72
2024/01/20 06:46:07;;;;;;;2.17;2.07;;;;;;;5.75;80.29;99635.88;5114811;28;20191;-69
2024/01/20 06:48:34;;;;;;;4.07;3.87;;;;;;;5.84;81.98;99638.56;5114676;28;20195;-62
2024/01/20 06:51:01;;;;;;;2.97;2.80;;;;;;;5.62;82.62;99626.78;5113380;28;20196;-61
2024/01/20 06:53:27;;;;;;;2.73;2.60;;;;;;;5.58;83.44;99647.38;5114382;28;20248;-62
2024/01/20 06:55:54;;;;;;;2.23;2.13;;;;;;;5.42;84.26;99647.31;5114247;28;20191;-61
2024/01/20 06:58:23;;;;;;;3.10;3.00;;;;;;;5.27;84.07;99641.00;5114650;28;20252;-62
2024/01/20 07:00:50;;;;;;;4.23;3.93;;;;;;;5.45;84.66;99664.59;5114000;28;20234;-61
2024/01/20 07:03:17;;;;;;;4.00;3.53;;;;;;;5.45;84.95;99675.97;5114561;28;20281;-62
2024/01/20 07:05:44;;;;;;;11.47;8.83;;;;;;;5.40;85.82;99680.88;5114510;28;20275;-62
2024/01/20 07:08:11;;;;;;;3.50;3.30;;;;;;;5.38;86.70;99689.91;5114526;28;20188;-63
2024/01/20 07:10:38;;;;;;;3.23;3.03;;;;;;;5.45;87.29;99686.50;5114213;28;20245;-62
2024/01/20 07:13:05;;;;;;;3.27;3.17;;;;;;;5.27;88.13;99688.38;5113660;28;20183;-63
2024/01/20 07:15:33;;;;;;;3.40;3.20;;;;;;;5.19;89.36;99696.25;5114019;28;20275;-63
2024/01/20 07:18:00;;;;;;;5.13;4.83;;;;;;;5.06;91.07;99700.28;5114165;28;20245;-63
2024/01/20 07:20:26;;;;;;;4.00;3.80;;;;;;;4.99;92.31;99700.09;5114089;28;20255;-61
2024/01/20 07:22:53;;;;;;;4.17;3.50;;;;;;;4.86;93.35;99704.13;5113663;28;20206;-62
2024/01/20 07:25:20;;;;;;;7.10;6.60;;;;;;;4.80;94.46;99710.84;5113780;28;20183;-62
2024/01/20 07:27:47;;;;;;;6.57;6.27;;;;;;;4.77;94.65;99713.78;5114282;28;20199;-62
2024/01/20 07:30:14;;;;;;;9.23;8.63;;;;;;;4.67;95.24;99715.69;5113820;28;20209;-63
2024/01/20 07:32:42;;;;;;;10.03;9.30;;;;;;;4.66;96.77;99719.25;5113502;28;20187;-62
2024/01/20 07:35:09;;;;;;;7.03;6.63;;;;;;;4.57;97.69;99725.44;5113181;28;20191;-63
2024/01/20 07:37:37;;;;;;;5.63;3.87;;;;;;;4.49;98.38;99727.19;5113044;28;20693;-63
2024/01/20 07:40:04;;;;;;;3.90;3.70;;;;;;;4.48;99.69;99734.25;5112610;28;20226;-63
2024/01/20 07:42:33;;;;;;;3.23;3.03;;;;;;;4.26;100.00;99737.34;5113296;28;20301;-64
2024/01/20 07:45:00;;;;;;;3.60;3.40;;;;;;;4.18;100.00;99741.69;5113782;28;20554;-63
2024/01/20 07:47:26;;;;;;;3.07;2.93;;;;;;;4.09;100.00;99746.03;5113300;28;20194;-64
2024/01/20 07:49:55;;;;;;;3.83;3.60;;;;;;;3.95;100.00;99749.19;5112974;28;20793;-63
2024/01/20 07:52:21;;;;;;;4.20;4.00;;;;;;;3.84;100.00;99761.72;5112719;28;20632;-63
2024/01/20 07:54:48;;;;;;;9.10;7.90;;;;;;;3.83;100.00;99771.38;5113295;28;20198;-63
2024/01/20 07:57:15;;;;;;;7.87;7.17;;;;;;;3.80;100.00;99769.03;5113399;28;20187;-63
2024/01/20 07:59:41;;;;;;;6.73;6.33;;;;;;;3.87;100.00;99782.41;5113213;28;20657;-62
2024/01/20 08:02:08;;;;;;;5.63;5.33;;;;;;;3.76;100.00;99772.94;5113449;28;20292;-64
2024/01/20 08:04:35;;;;;;;5.43;5.13;;;;;;;3.77;100.00;99786.91;5113278;28;20440;-64
2024/01/20 08:07:03;;;;;;;4.67;4.27;;;;;;;3.56;100.00;99795.00;5113163;28;20251;-64
2024/01/20 08:09:30;;;;;;;3.73;3.53;;;;;;;3.43;100.00;99798.94;5113544;28;20197;-63
2024/01/20 08:11:57;;;;;;;3.73;3.43;;;;;;;3.57;100.00;99809.81;5112676;28;20202;-64
2024/01/20 08:14:23;;;;;;;3.50;3.23;;;;;;;3.62;100.00;99817.22;5113063;28;20194;-60
2024/01/20 08:16:50;;;;;;;3.50;3.30;;;;;;;3.29;100.00;99808.09;5113649;28;20200;-59
2024/01/20 08:19:17;;;;;;;4.10;3.90;;;;;;;3.14;100.00;99809.50;5113223;28;20236;-60
2024/01/20 08:21:43;;;;;;;5.43;4.93;;;;;;;2.92;100.00;99825.56;5112854;28;20701;-60
2024/01/20 08:24:11;;;;;;;3.83;3.53;;;;;;;2.86;100.00;99833.97;5112657;28;20444;-60
2024/01/20 08:26:38;;;;;;;3.63;3.43;;;;;;;2.69;100.00;99844.34;5111379;28;20489;-61
2024/01/20 08:29:05;;;;;;;3.30;3.10;;;;;;;2.60;100.00;99840.75;5111188;28;20501;-60
2024/01/20 08:31:31;;;;;;;4.27;4.03;;;;;;;2.52;100.00;99851.09;5112213;28;20927;-60
2024/01/20 08:33:58;;;;;;;4.13;3.87;;;;;;;2.40;100.00;99859.19;5111970;28;20501;-60
2024/01/20 08:36:25;;;;;;;4.83;4.53;;;;;;;2.36;100.00;99863.91;5112407;28;21193;-62
2024/01/20 08:38:51;;;;;;;3.67;3.40;;;;;;;2.26;100.00;99868.31;5110991;28;20508;-60
2024/01/20 08:41:20;;;;;;;3.43;3.27;;;;;;;2.14;100.00;99858.91;5112429;28;20475;-60
2024/01/20 08:43:48;;;;;;;3.73;3.50;;;;;;;2.12;100.00;99865.25;5112896;28;20505;-60
2024/01/20 08:46:14;;;;;;;4.60;4.20;;;;;;;2.10;100.00;99886.31;5112416;28;20489;-61
2024/01/20 08:48:41;;;;;;;5.40;4.90;;;;;;;2.03;100.00;99887.81;5112931;28;20440;-60
2024/01/20 08:51:08;;;;;;;4.83;4.63;;;;;;;2.00;100.00;99901.16;5112652;28;20497;-61
2024/01/20 08:53:35;;;;;;;4.70;4.40;;;;;;;1.92;100.00;99890.50;5112525;28;20497;-60
2024/01/20 08:56:02;;;;;;;4.10;3.90;;;;;;;1.92;100.00;99905.41;5112260;28;20955;-61
2024/01/20 08:58:31;;;;;;;10.80;9.73;;;;;;;1.98;100.00;99915.34;5112268;28;20440;-61
2024/01/20 09:00:58;;;;;;;5.80;5.40;;;;;;;2.12;100.00;99907.16;5112423;28;20497;-60
2024/01/20 09:03:25;;;;;;;3.97;3.77;;;;;;;1.97;100.00;99914.53;5112582;28;20497;-59
2024/01/20 09:05:52;;;;;;;4.80;4.50;;;;;;;2.01;100.00;99909.88;5112109;28;20441;-60
2024/01/20 09:08:18;;;;;;;5.37;5.07;;;;;;;1.94;100.00;99919.19;5112785;28;20435;-60
2024/01/20 09:10:45;;;;;;;6.43;6.03;;;;;;;2.01;100.00;99934.28;5112396;28;20444;-61
2024/01/20 09:13:12;;;;;;;5.07;4.77;;;;;;;2.04;100.00;99918.28;5112502;28;20447;-62
2024/01/20 09:15:40;;;;;;;4.77;4.47;;;;;;;2.11;100.00;99942.16;5112061;28;20444;-61
2024/01/20 09:18:07;;;;;;;5.13;4.87;;;;;;;2.06;100.00;99946.97;5111895;28;20448;-61
2024/01/20 09:20:33;;;;;;;4.70;4.50;;;;;;;2.13;100.00;99941.09;5111451;28;20955;-60
2024/01/20 09:23:01;;;;;;;6.50;6.10;;;;;;;2.06;100.00;99936.47;5111514;28;20471;-60
2024/01/20 09:25:27;;;;;;;5.87;5.40;;;;;;;2.09;100.00;99939.69;5111453;28;20444;-60
2024/01/20 09:27:54;;;;;;;6.13;5.63;;;;;;;2.04;100.00;99941.03;5111588;28;20876;-60
2024/01/20 09:30:21;;;;;;;5.23;4.93;;;;;;;2.19;100.00;99956.25;5111954;28;20947;-60
2024/01/20 09:32:49;;;;;;;4.53;4.33;;;;;;;2.22;100.00;99958.63;5112130;28;20444;-60
2024/01/20 09:35:16;;;;;;;5.20;4.90;;;;;;;2.15;100.00;99960.09;5111907;28;20440;-61
2024/01/20 09:37:43;;;;;;;5.10;4.80;;;;;;;2.35;100.00;99958.38;5111673;28;20955;-60
2024/01/20 09:40:11;;;;;;;4.80;4.40;;;;;;;2.42;100.00;99968.22;5112263;28;20497;-61
2024/01/20 09:42:37;;;;;;;5.50;5.20;;;;;;;2.38;100.00;99961.59;5111917;28;20480;-61
2024/01/20 09:45:05;;;;;;;8.40;7.80;;;;;;;2.38;100.00;99969.44;5112164;28;20439;-61
2024/01/20 09:47:32;;;;;;;5.40;5.10;;;;;;;2.41;100.00;99960.50;5111671;28;20497;-59
2024/01/20 09:50:00;;;;;;;9.80;9.10;;;;;;;2.38;100.00;99945.88;5112127;28;20462;-60
2024/01/20 09:52:28;;;;;;;13.93;12.63;;;;;;;2.58;100.00;99963.28;5111808;28;20444;-61
2024/01/20 09:55:09;;;;;;;11.10;10.03;;;;;;;2.51;100.00;99962.19;5111747;28;20505;-60
2024/01/20 09:57:37;;;;;;;9.27;8.43;;;;;;;2.56;100.00;99970.47;5111743;28;20440;-60
2024/01/20 10:00:06;;;;;;;6.50;6.13;;;;;;;2.53;100.00;99975.97;5111740;28;20436;-60
2024/01/20 10:02:34;;;;;;;7.40;6.70;;;;;;;2.35;100.00;99974.94;5111476;28;20471;-60
2024/01/20 10:05:04;;;;;;;6.87;6.37;;;;;;;2.25;100.00;99984.56;5111842;28;20512;-60
2024/01/20 10:07:32;;;;;;;7.63;7.03;;;;;;;2.26;100.00;99975.75;5111333;28;20429;-60
2024/01/20 10:09:59;;;;;;;5.53;5.23;;;;;;;2.14;100.00;99966.31;5111888;28;20441;-59
2024/01/20 10:12:26;;;;;;;5.70;5.30;;;;;;;2.20;100.00;99975.44;5111533;28;20444;-60
2024/01/20 10:14:53;;;;;;;5.90;5.50;;;;;;;2.13;100.00;99972.53;5112093;28;20436;-61
2024/01/20 10:17:20;;;;;;;5.67;5.27;;;;;;;2.18;100.00;99972.13;5111561;28;20465;-59
2024/01/20 10:19:46;;;;;;;5.83;5.43;;;;;;;2.20;100.00;99976.25;5111312;28;20996;-60
2024/01/20 10:22:15;;;;;;;6.57;6.17;;;;;;;2.30;100.00;99979.78;5111358;28;20467;-60
2024/01/20 10:24:48;;;;;;;10.13;9.33;;;;;;;2.24;100.00;99985.50;5111661;28;20429;-59
2024/01/20 10:27:18;;;;;;;9.57;8.90;;;;;;;2.24;100.00;99985.50;5111372;28;20444;-60
2024/01/20 10:29:45;;;;;;;9.67;8.90;;;;;;;2.24;100.00;99984.72;5111923;28;20441;-60
2024/01/20 10:32:12;;;;;;;12.53;11.50;;;;;;;2.25;100.00;99989.78;5111026;28;20495;-61
2024/01/20 10:34:39;;;;;;;12.77;11.60;;;;;;;2.18;100.00;99996.53;5111846;28;20498;-60
2024/01/20 10:37:10;;;;;;;11.90;10.90;;;;;;;2.20;100.00;100002.47;5114335;28;20436;-61
2024/01/20 10:39:41;;;;;;;9.47;8.77;;;;;;;2.20;100.00;100005.09;5114895;28;21062;-60
2024/01/20 10:42:11;;;;;;;11.13;10.13;;;;;;;2.18;100.00;100009.63;5114933;28;20562;-59
2024/01/20 10:44:39;;;;;;;13.37;11.17;;;;;;;2.28;100.00;100007.88;5114283;28;20440;-59
2024/01/20 10:47:14;;;;;;;9.27;8.47;;;;;;;2.18;100.00;99996.53;5114729;28;20440;-60
2024/01/20 10:49:46;;;;;;;7.90;7.30;;;;;;;2.20;100.00;100007.69;5115298;28;20481;-60
2024/01/20 10:52:13;;;;;;;10.73;9.73;;;;;;;2.22;100.00;100007.56;5114984;28;20508;-61
2024/01/20 10:54:43;;;;;;;8.07;7.43;;;;;;;2.26;100.00;100020.31;5115157;28;20436;-60
2024/01/20 10:57:10;;;;;;;7.60;7.00;;;;;;;2.27;100.00;100014.09;5114648;28;20428;-60
2024/01/20 10:59:42;;;;;;;7.33;6.90;;;;;;;2.27;100.00;100016.72;5114811;28;20440;-60
2024/01/20 11:02:10;;;;;;;7.70;6.97;;;;;;;2.24;100.00;100003.84;5114594;28;20487;-61
2024/01/20 11:04:39;;;;;;;8.07;7.47;;;;;;;2.33;100.00;100021.41;5114656;28;20515;-60
2024/01/20 11:07:08;;;;;;;7.37;6.80;;;;;;;2.30;100.00;100021.69;5114391;28;20444;-61
2024/01/20 11:09:35;;;;;;;7.20;6.70;;;;;;;2.25;100.00;100023.84;5114191;28;20470;-61
2024/01/20 11:12:06;;;;;;;6.97;6.50;;;;;;;2.34;100.00;100015.25;5114091;28;20903;-62
2024/01/20 11:14:33;;;;;;;8.17;7.67;;;;;;;2.29;100.00;100020.00;5114202;28;20584;-60
2024/01/20 11:17:10;;;;;;;9.33;8.53;;;;;;;2.36;100.00;100026.41;5114097;28;20444;-60
2024/01/20 11:19:36;;;;;;;9.00;8.13;;;;;;;2.30;100.00;100032.19;5114587;28;20431;-60
2024/01/20 11:22:03;;;;;;;8.20;7.53;;;;;;;2.32;100.00;100039.91;5114192;28;20528;-60
2024/01/20 11:24:38;;;;;;;7.50;6.80;;;;;;;2.44;100.00;100039.69;5114087;28;20437;-60
2024/01/20 11:27:07;;;;;;;7.27;6.77;;;;;;;2.46;100.00;100043.03;5114077;28;20518;-61
2024/01/20 11:29:34;;;;;;;7.73;7.23;;;;;;;2.50;100.00;100049.66;5113980;28;20450;-60
2024/01/20 11:32:01;;;;;;;9.60;8.70;;;;;;;2.45;100.00;100045.78;5113894;28;20821;-60
2024/01/20 11:34:29;;;;;;;9.47;8.40;;;;;;;2.49;100.00;100053.22;5113771;28;20448;-60
2024/01/20 11:37:00;;;;;;;12.67;9.53;;;;;;;2.43;100.00;100052.91;5113300;28;20483;-60